createdAt,value
2019-05-10T00:00:31.693Z,10.60
2019-05-10T00:03:17.060Z,10.60
2019-05-10T00:06:02.315Z,10.70
2019-05-10T00:08:47.275Z,10.90
2019-05-10T00:11:20.665Z,10.90
2019-05-10T00:13:54.911Z,10.90
2019-05-10T00:16:22.032Z,10.70
2019-05-10T00:18:48.796Z,11.00
2019-05-10T00:21:15.280Z,10.90
2019-05-10T00:23:41.740Z,10.90
2019-05-10T00:26:08.203Z,11.00
2019-05-10T00:28:34.673Z,11.00
2019-05-10T00:31:01.153Z,11.00
2019-05-10T00:33:27.612Z,10.90
2019-05-10T00:35:54.556Z,10.90
2019-05-10T00:38:21.023Z,10.90
2019-05-10T00:40:47.582Z,11.00
2019-05-10T00:43:14.469Z,10.90
2019-05-10T00:45:40.836Z,10.90
2019-05-10T00:48:07.332Z,11.10
2019-05-10T00:50:33.804Z,11.00
2019-05-10T00:53:00.286Z,11.00
2019-05-10T00:55:26.840Z,11.10
2019-05-10T00:57:53.424Z,11.00
2019-05-10T01:00:20.063Z,11.00
2019-05-10T01:02:46.485Z,11.00
2019-05-10T01:05:13.402Z,11.50
2019-05-10T01:07:39.876Z,10.90
2019-05-10T01:10:08.688Z,11.30
2019-05-10T01:12:35.092Z,10.90
2019-05-10T01:15:01.659Z,11.10
2019-05-10T01:17:28.136Z,11.10
2019-05-10T01:19:54.738Z,11.00
2019-05-10T01:22:21.306Z,11.10
2019-05-10T01:24:47.765Z,10.90
2019-05-10T01:27:14.325Z,11.00
2019-05-10T01:29:41.105Z,11.00
2019-05-10T01:32:08.048Z,10.90
2019-05-10T01:34:34.892Z,11.00
2019-05-10T01:37:01.353Z,11.00
2019-05-10T01:39:27.830Z,11.00
2019-05-10T01:41:54.327Z,11.30
2019-05-10T01:44:20.889Z,11.00
2019-05-10T01:46:48.153Z,11.20
2019-05-10T01:49:14.745Z,11.20
2019-05-10T01:51:41.204Z,10.90
2019-05-10T01:54:07.690Z,11.20
2019-05-10T01:56:34.141Z,11.00
2019-05-10T01:59:00.611Z,11.00
2019-05-10T02:01:26.967Z,11.30
2019-05-10T02:03:53.842Z,11.40
2019-05-10T02:06:20.287Z,10.90
2019-05-10T02:08:46.844Z,11.00
2019-05-10T02:11:13.353Z,11.10
2019-05-10T02:13:39.808Z,11.20
2019-05-10T02:16:06.624Z,11.00
2019-05-10T02:18:33.075Z,10.90
2019-05-10T02:20:59.554Z,11.00
2019-05-10T02:23:26.096Z,11.00
2019-05-10T02:26:08.278Z,11.10
2019-05-10T02:28:20.861Z,11.00
2019-05-10T02:30:48.000Z,11.00
2019-05-10T02:33:14.569Z,11.10
2019-05-10T02:35:41.140Z,11.00
2019-05-10T02:38:07.592Z,11.00
2019-05-10T02:40:34.085Z,10.90
2019-05-10T02:43:00.538Z,11.00
2019-05-10T02:45:27.096Z,11.10
2019-05-10T02:47:53.546Z,11.00
2019-05-10T02:50:20.199Z,10.90
2019-05-10T02:52:46.785Z,11.00
2019-05-10T02:55:13.430Z,11.10
2019-05-10T02:57:40.000Z,11.00
2019-05-10T03:00:08.353Z,11.00
2019-05-10T03:02:35.624Z,10.90
2019-05-10T03:05:04.375Z,10.90
2019-05-10T03:07:34.931Z,10.80
2019-05-10T03:10:03.584Z,11.10
2019-05-10T03:12:30.031Z,11.00
2019-05-10T03:14:57.103Z,11.10
2019-05-10T03:17:24.435Z,11.10
2019-05-10T03:19:53.105Z,11.00
2019-05-10T03:22:19.757Z,11.00
2019-05-10T03:24:46.242Z,10.90
2019-05-10T03:27:12.781Z,10.90
2019-05-10T03:29:39.693Z,10.80
2019-05-10T03:32:06.542Z,10.90
2019-05-10T03:34:33.141Z,11.00
2019-05-10T03:36:59.823Z,10.90
2019-05-10T03:39:26.296Z,10.90
2019-05-10T03:41:52.762Z,10.50
2019-05-10T03:44:19.206Z,10.70
2019-05-10T03:46:45.681Z,10.40
2019-05-10T03:49:12.134Z,10.30
2019-05-10T03:51:38.928Z,10.10
2019-05-10T03:54:05.582Z,10.30
2019-05-10T03:56:32.056Z,10.30
2019-05-10T03:58:58.500Z,9.80
2019-05-10T04:01:25.081Z,10.20
2019-05-10T04:03:51.528Z,10.20
2019-05-10T04:06:17.975Z,10.20
2019-05-10T04:08:44.547Z,9.90
2019-05-10T04:11:11.317Z,10.20
2019-05-10T04:13:37.794Z,9.90
2019-05-10T04:16:04.240Z,10.30
2019-05-10T04:18:31.030Z,10.10
2019-05-10T04:20:57.486Z,10.10
2019-05-10T04:23:23.949Z,10.10
2019-05-10T04:25:50.709Z,9.80
2019-05-10T04:28:17.153Z,10.40
2019-05-10T04:30:45.224Z,9.90
2019-05-10T04:33:11.687Z,10.20
2019-05-10T04:35:38.159Z,10.30
2019-05-10T04:38:05.055Z,9.90
2019-05-10T04:40:32.009Z,10.40
2019-05-10T04:42:58.582Z,10.30
2019-05-10T04:45:25.710Z,10.20
2019-05-10T04:47:52.153Z,10.30
2019-05-10T04:50:18.969Z,9.80
2019-05-10T04:52:45.409Z,10.10
2019-05-10T04:55:12.242Z,10.20
2019-05-10T04:57:50.099Z,10.30
2019-05-10T05:00:07.462Z,10.40
2019-05-10T05:02:34.202Z,10.20
2019-05-10T05:05:00.945Z,10.20
2019-05-10T05:07:27.504Z,10.40
2019-05-10T05:09:53.955Z,10.20
2019-05-10T05:12:20.424Z,10.40
2019-05-10T05:14:46.987Z,10.40
2019-05-10T05:17:13.461Z,10.10
2019-05-10T05:19:40.944Z,10.30
2019-05-10T05:22:08.028Z,10.10
2019-05-10T05:24:34.580Z,10.20
2019-05-10T05:27:01.024Z,10.30
2019-05-10T05:29:27.504Z,10.20
2019-05-10T05:32:00.842Z,10.10
2019-05-10T05:34:22.241Z,10.20
2019-05-10T05:36:48.989Z,10.20
2019-05-10T05:39:15.466Z,10.70
2019-05-10T05:41:49.115Z,10.30
2019-05-10T05:44:10.301Z,10.70
2019-05-10T05:46:36.884Z,10.30
2019-05-10T05:49:03.453Z,10.40
2019-05-10T05:51:29.907Z,10.50
2019-05-10T05:53:56.427Z,10.70
2019-05-10T05:56:23.317Z,10.40
2019-05-10T05:58:49.893Z,10.50
2019-05-10T06:01:26.331Z,10.50
2019-05-10T06:03:45.403Z,10.50
2019-05-10T06:06:26.819Z,10.50
2019-05-10T06:08:40.018Z,10.80
2019-05-10T06:11:09.071Z,10.60
2019-05-10T06:13:34.753Z,10.50
2019-05-10T06:16:06.858Z,10.60
2019-05-10T06:18:29.809Z,10.50
2019-05-10T06:20:56.297Z,11.10
2019-05-10T06:23:23.639Z,11.00
2019-05-10T06:25:50.127Z,10.70
2019-05-10T06:28:26.579Z,11.00
2019-05-10T06:30:45.265Z,11.00
2019-05-10T06:33:13.233Z,10.90
2019-05-10T06:35:39.912Z,11.40
2019-05-10T06:38:06.808Z,11.40
2019-05-10T06:40:37.504Z,11.10
2019-05-10T06:43:07.018Z,11.00
2019-05-10T06:45:30.237Z,11.20
2019-05-10T06:47:56.707Z,11.00
2019-05-10T06:50:29.836Z,10.90
2019-05-10T06:53:00.707Z,11.00
2019-05-10T06:55:23.632Z,10.80
2019-05-10T06:57:58.754Z,11.00
2019-05-10T07:00:19.235Z,11.40
2019-05-10T07:02:46.033Z,10.90
2019-05-10T07:05:12.797Z,10.90
2019-05-10T07:07:44.619Z,11.00
2019-05-10T07:10:18.732Z,10.70
2019-05-10T07:12:39.100Z,10.80
2019-05-10T07:15:07.431Z,11.00
2019-05-10T07:17:41.366Z,10.90
2019-05-10T07:20:06.772Z,11.00
2019-05-10T07:22:33.484Z,10.50
2019-05-10T07:25:04.315Z,11.00
2019-05-10T07:27:28.523Z,10.80
2019-05-10T07:29:55.110Z,10.70
2019-05-10T07:32:24.014Z,11.00
2019-05-10T07:34:58.609Z,10.70
2019-05-10T07:37:19.020Z,10.60
2019-05-10T07:39:45.495Z,10.70
2019-05-10T07:42:11.951Z,10.60
2019-05-10T07:44:41.579Z,10.70
2019-05-10T07:47:07.020Z,10.70
2019-05-10T07:49:33.742Z,10.50
2019-05-10T07:52:02.109Z,10.60
2019-05-10T07:54:28.596Z,10.50
2019-05-10T07:56:55.174Z,10.20
2019-05-10T07:59:28.207Z,10.60
2019-05-10T08:01:50.006Z,10.50
2019-05-10T08:04:19.716Z,10.60
2019-05-10T08:06:47.887Z,10.70
2019-05-10T08:09:13.400Z,10.60
2019-05-10T08:11:39.967Z,10.50
2019-05-10T08:14:10.903Z,10.70
2019-05-10T08:16:34.804Z,10.60
2019-05-10T08:19:02.393Z,10.70
2019-05-10T08:21:28.947Z,10.70
2019-05-10T08:23:59.069Z,10.60
2019-05-10T08:26:24.939Z,11.10
2019-05-10T08:28:52.562Z,11.00
2019-05-10T08:31:21.794Z,11.00
2019-05-10T08:33:56.319Z,10.80
2019-05-10T08:36:16.658Z,10.90
2019-05-10T08:38:47.139Z,11.00
2019-05-10T08:41:16.514Z,11.00
2019-05-10T08:43:40.819Z,10.90
2019-05-10T08:46:08.436Z,10.90
2019-05-10T08:48:38.017Z,10.90
2019-05-10T08:51:06.458Z,11.00
2019-05-10T08:53:32.908Z,11.00
2019-05-10T08:56:01.940Z,11.10
2019-05-10T08:58:31.664Z,10.90
2019-05-10T09:01:15.528Z,11.00
2019-05-10T09:03:24.324Z,11.20
2019-05-10T09:05:52.471Z,11.30
2019-05-10T09:08:21.705Z,11.40
2019-05-10T09:10:47.596Z,11.40
2019-05-10T09:13:14.097Z,11.40
2019-05-10T09:15:51.175Z,12.00
2019-05-10T09:18:09.023Z,11.70
2019-05-10T09:20:35.484Z,12.00
2019-05-10T09:23:02.508Z,11.70
2019-05-10T09:25:31.139Z,12.10
2019-05-10T09:28:02.317Z,12.30
2019-05-10T09:30:35.490Z,12.40
2019-05-10T09:33:08.345Z,12.40
2019-05-10T09:35:29.340Z,12.90
2019-05-10T09:37:58.557Z,12.30
2019-05-10T09:40:26.405Z,12.80
2019-05-10T09:42:53.172Z,12.90
2019-05-10T09:45:22.185Z,12.80
2019-05-10T09:47:48.132Z,12.50
2019-05-10T09:50:15.117Z,12.70
2019-05-10T09:52:41.574Z,13.00
2019-05-10T09:55:14.496Z,12.90
2019-05-10T09:57:38.401Z,12.90
2019-05-10T10:00:07.416Z,12.80
2019-05-10T10:02:34.079Z,12.30
2019-05-10T10:05:01.104Z,12.70
2019-05-10T10:07:29.336Z,12.30
2019-05-10T10:09:57.067Z,12.20
2019-05-10T10:12:23.597Z,12.50
2019-05-10T10:14:49.992Z,12.10
2019-05-10T10:17:18.351Z,12.30
2019-05-10T10:19:47.807Z,11.80
2019-05-10T10:22:17.400Z,12.30
2019-05-10T10:24:48.969Z,12.00
2019-05-10T10:27:13.139Z,12.10
2019-05-10T10:29:40.196Z,11.80
2019-05-10T10:32:07.950Z,11.80
2019-05-10T10:34:38.754Z,11.80
2019-05-10T10:37:02.894Z,11.80
2019-05-10T10:39:29.810Z,11.90
2019-05-10T10:41:57.298Z,12.30
2019-05-10T10:44:24.106Z,12.20
2019-05-10T10:46:50.556Z,12.90
2019-05-10T10:49:17.788Z,12.90
2019-05-10T10:51:47.092Z,13.40
2019-05-10T10:54:12.789Z,13.80
2019-05-10T10:56:39.688Z,13.90
2019-05-10T10:59:07.505Z,14.50
2019-05-10T11:01:48.960Z,15.60
2019-05-10T11:04:08.053Z,16.30
2019-05-10T11:06:31.352Z,16.30
2019-05-10T11:08:57.805Z,16.20
2019-05-10T11:11:32.899Z,16.00
2019-05-10T11:14:00.594Z,15.50
2019-05-10T11:16:21.608Z,15.60
2019-05-10T11:18:48.048Z,15.50
2019-05-10T11:21:14.762Z,15.60
2019-05-10T11:23:42.024Z,14.50
2019-05-10T11:26:10.829Z,15.10
2019-05-10T11:28:43.465Z,15.40
2019-05-10T11:31:06.165Z,15.70
2019-05-10T11:33:41.138Z,16.30
2019-05-10T11:36:08.751Z,16.40
2019-05-10T11:38:35.448Z,16.10
2019-05-10T11:41:06.735Z,15.60
2019-05-10T11:43:31.343Z,15.50
2019-05-10T11:45:57.903Z,15.50
2019-05-10T11:48:28.983Z,15.70
2019-05-10T11:50:53.275Z,16.60
2019-05-10T11:53:20.906Z,17.50
2019-05-10T11:55:48.388Z,18.60
2019-05-10T11:58:15.025Z,18.70
2019-05-10T12:00:41.779Z,18.80
2019-05-10T12:03:14.797Z,18.80
2019-05-10T12:05:37.163Z,18.70
2019-05-10T12:08:03.927Z,18.80
2019-05-10T12:10:53.809Z,18.60
2019-05-10T12:13:24.384Z,18.60
2019-05-10T12:15:47.305Z,19.30
2019-05-10T12:18:15.043Z,18.80
2019-05-10T12:20:55.658Z,21.00
2019-05-10T12:23:13.291Z,22.10
2019-05-10T12:25:53.225Z,23.30
2019-05-10T12:28:07.077Z,24.30
2019-05-10T12:30:34.850Z,23.50
2019-05-10T12:33:08.773Z,21.40
2019-05-10T12:35:35.580Z,20.10
2019-05-10T12:38:01.495Z,20.50
2019-05-10T12:40:27.296Z,20.40
2019-05-10T12:42:54.030Z,20.50
2019-05-10T12:45:23.091Z,21.70
2019-05-10T12:47:51.420Z,22.90
2019-05-10T12:50:17.842Z,22.10
2019-05-10T12:52:53.088Z,20.90
2019-05-10T12:55:12.784Z,21.40
2019-05-10T12:57:42.861Z,21.20
2019-05-10T13:00:13.344Z,20.30
2019-05-10T13:02:37.398Z,21.20
2019-05-10T13:05:04.380Z,21.40
2019-05-10T13:07:31.037Z,21.50
2019-05-10T13:10:03.610Z,22.50
2019-05-10T13:12:25.911Z,21.90
2019-05-10T13:14:54.120Z,21.80
2019-05-10T13:17:23.665Z,22.10
2019-05-10T13:19:52.788Z,21.90
2019-05-10T13:22:19.417Z,21.80
2019-05-10T13:24:46.082Z,22.20
2019-05-10T13:27:12.781Z,22.20
2019-05-10T13:29:40.671Z,21.10
2019-05-10T13:32:07.781Z,21.10
2019-05-10T13:34:34.219Z,21.20
2019-05-10T13:37:00.697Z,20.50
2019-05-10T13:39:27.694Z,19.60
2019-05-10T13:41:57.032Z,20.10
2019-05-10T13:44:22.681Z,21.20
2019-05-10T13:46:49.158Z,22.20
2019-05-10T13:49:15.873Z,22.30
2019-05-10T13:51:42.403Z,21.30
2019-05-10T13:54:09.046Z,21.10
2019-05-10T13:56:35.614Z,21.60
2019-05-10T13:59:13.612Z,21.20
2019-05-10T14:01:30.616Z,19.40
2019-05-10T14:04:01.181Z,19.60
2019-05-10T14:06:26.334Z,18.90
2019-05-10T14:08:53.193Z,19.00
2019-05-10T14:11:19.536Z,19.20
2019-05-10T14:13:46.409Z,19.20
2019-05-10T14:16:18.344Z,19.70
2019-05-10T14:18:41.601Z,19.80
2019-05-10T14:21:08.053Z,20.30
2019-05-10T14:23:35.687Z,21.20
2019-05-10T14:26:03.301Z,20.60
2019-05-10T14:28:30.008Z,19.80
2019-05-10T14:30:58.552Z,20.50
2019-05-10T14:33:24.725Z,20.90
2019-05-10T14:35:55.103Z,21.40
2019-05-10T14:38:22.701Z,20.30
2019-05-10T14:40:47.975Z,19.70
2019-05-10T14:43:14.408Z,19.70
2019-05-10T14:45:41.011Z,18.60
2019-05-10T14:48:07.569Z,18.40
2019-05-10T14:50:34.441Z,18.90
2019-05-10T14:53:00.900Z,18.90
2019-05-10T14:55:33.985Z,19.20
2019-05-10T14:57:56.107Z,18.90
2019-05-10T15:00:22.886Z,18.50
2019-05-10T15:02:49.341Z,18.70
2019-05-10T15:05:18.079Z,18.50
2019-05-10T15:07:44.745Z,18.00
2019-05-10T15:10:11.441Z,18.70
2019-05-10T15:12:37.889Z,18.90
2019-05-10T15:15:05.398Z,19.20
2019-05-10T15:17:31.833Z,18.90
2019-05-10T15:20:00.045Z,18.40
2019-05-10T15:22:26.668Z,18.80
2019-05-10T15:24:53.271Z,18.80
2019-05-10T15:27:21.899Z,19.20
2019-05-10T15:29:48.364Z,18.70
2019-05-10T15:32:14.752Z,18.60
2019-05-10T15:34:41.204Z,19.30
2019-05-10T15:37:09.408Z,19.10
2019-05-10T15:39:36.137Z,19.20
2019-05-10T15:42:03.211Z,19.70
2019-05-10T15:44:31.580Z,19.50
2019-05-10T15:46:58.388Z,19.50
2019-05-10T15:49:24.968Z,19.10
2019-05-10T15:51:57.000Z,19.10
2019-05-10T15:54:19.830Z,18.70
2019-05-10T15:56:46.264Z,19.10
2019-05-10T15:59:18.519Z,19.20
2019-05-10T16:01:40.984Z,19.40
2019-05-10T16:04:07.531Z,18.60
2019-05-10T16:06:37.831Z,18.60
2019-05-10T16:09:16.824Z,19.30
2019-05-10T16:11:33.694Z,18.60
2019-05-10T16:14:01.661Z,17.80
2019-05-10T16:16:30.424Z,17.80
2019-05-10T16:18:57.215Z,18.20
2019-05-10T16:21:24.019Z,18.20
2019-05-10T16:23:50.498Z,18.20
2019-05-10T16:26:22.307Z,18.10
2019-05-10T16:28:45.981Z,18.00
2019-05-10T16:31:12.363Z,18.50
2019-05-10T16:33:39.178Z,18.20
2019-05-10T16:36:08.273Z,18.00
2019-05-10T16:38:33.893Z,18.60
2019-05-10T16:41:00.766Z,17.80
2019-05-10T16:43:27.327Z,17.50
2019-05-10T16:45:53.786Z,17.30
2019-05-10T16:48:20.460Z,17.30
2019-05-10T16:50:46.911Z,17.10
2019-05-10T16:53:13.494Z,16.70
2019-05-10T16:55:42.577Z,17.50
2019-05-10T16:58:09.435Z,16.80
2019-05-10T17:00:40.769Z,17.30
2019-05-10T17:03:05.104Z,17.10
2019-05-10T17:05:31.668Z,17.50
2019-05-10T17:07:58.900Z,17.30
2019-05-10T17:10:27.012Z,16.90
2019-05-10T17:12:54.104Z,16.90
2019-05-10T17:15:20.661Z,16.70
2019-05-10T17:17:47.174Z,16.30
2019-05-10T17:20:15.873Z,16.20
2019-05-10T17:22:42.424Z,16.30
2019-05-10T17:25:09.295Z,16.40
2019-05-10T17:27:35.868Z,16.20
2019-05-10T17:30:04.351Z,16.00
2019-05-10T17:32:31.004Z,15.70
2019-05-10T17:34:59.109Z,15.70
2019-05-10T17:37:29.924Z,15.60
2019-05-10T17:39:54.124Z,15.70
2019-05-10T17:42:20.782Z,15.60
2019-05-10T17:44:47.347Z,15.50
2019-05-10T17:47:13.828Z,15.40
2019-05-10T17:49:40.295Z,15.10
2019-05-10T17:52:07.038Z,15.10
2019-05-10T17:54:53.290Z,14.90
2019-05-10T17:57:19.760Z,15.00
2019-05-10T17:59:47.098Z,14.90
2019-05-10T18:02:14.600Z,14.80
2019-05-10T18:04:41.072Z,14.30
2019-05-10T18:07:07.548Z,14.20
2019-05-10T18:09:34.118Z,14.20
2019-05-10T18:12:00.663Z,13.80
2019-05-10T18:14:29.516Z,13.80
2019-05-10T18:16:55.731Z,13.80
2019-05-10T18:19:24.549Z,13.80
2019-05-10T18:21:54.975Z,13.80
2019-05-10T18:24:18.960Z,13.80
2019-05-10T18:26:45.415Z,13.70
2019-05-10T18:29:11.918Z,13.40
2019-05-10T18:31:38.473Z,13.30
2019-05-10T18:34:05.069Z,13.40
2019-05-10T18:36:50.417Z,13.30
2019-05-10T18:39:00.084Z,13.20
2019-05-10T18:41:26.845Z,13.20
2019-05-10T18:43:53.241Z,12.90
2019-05-10T18:46:19.929Z,12.80
2019-05-10T18:48:46.979Z,12.90
2019-05-10T18:51:17.867Z,12.90
2019-05-10T18:53:42.063Z,12.70
2019-05-10T18:56:08.549Z,12.80
2019-05-10T18:58:35.128Z,12.90
2019-05-10T19:01:02.454Z,12.70
2019-05-10T19:03:33.562Z,12.50
2019-05-10T19:05:57.378Z,12.40
2019-05-10T19:08:23.841Z,12.80
2019-05-10T19:10:50.320Z,12.50
2019-05-10T19:13:17.511Z,12.90
2019-05-10T19:15:51.709Z,12.10
2019-05-10T19:18:12.809Z,12.30
2019-05-10T19:20:39.268Z,12.40
2019-05-10T19:23:05.754Z,12.30
2019-05-10T19:25:32.318Z,12.40
2019-05-10T19:27:58.899Z,12.50
2019-05-10T19:30:25.489Z,12.50
2019-05-10T19:32:56.322Z,12.60
2019-05-10T19:35:20.596Z,12.30
2019-05-10T19:37:53.989Z,12.40
2019-05-10T19:40:22.474Z,12.10
2019-05-10T19:42:49.705Z,11.80
2019-05-10T19:45:19.286Z,12.10
2019-05-10T19:47:44.657Z,12.00
2019-05-10T19:50:11.434Z,11.80
2019-05-10T19:52:38.199Z,11.80
2019-05-10T19:55:05.143Z,12.00
2019-05-10T19:57:31.542Z,12.00
2019-05-10T19:59:58.432Z,12.10
2019-05-10T20:02:25.357Z,12.10
2019-05-10T20:04:51.853Z,12.00
2019-05-10T20:07:18.320Z,12.00
2019-05-10T20:09:44.822Z,12.10
2019-05-10T20:12:11.272Z,11.90
2019-05-10T20:14:37.740Z,11.80
2019-05-10T20:17:04.350Z,11.80
2019-05-10T20:19:30.907Z,11.80
2019-05-10T20:21:57.393Z,11.80
2019-05-10T20:24:23.955Z,11.70
2019-05-10T20:26:50.450Z,11.80
2019-05-10T20:29:17.037Z,11.70
2019-05-10T20:31:43.511Z,11.90
2019-05-10T20:34:10.077Z,11.50
2019-05-10T20:36:36.938Z,11.80
2019-05-10T20:39:05.904Z,11.50
2019-05-10T20:41:32.300Z,11.80
2019-05-10T20:43:59.130Z,11.50
2019-05-10T20:46:25.913Z,11.80
2019-05-10T20:48:52.504Z,11.70
2019-05-10T20:51:18.969Z,12.00
2019-05-10T20:53:48.100Z,11.90
2019-05-10T20:56:13.740Z,12.30
2019-05-10T20:58:40.229Z,12.30
2019-05-10T21:01:06.806Z,12.30
2019-05-10T21:03:33.550Z,12.30
2019-05-10T21:06:00.021Z,12.30
2019-05-10T21:08:26.518Z,12.40
2019-05-10T21:10:52.974Z,12.30
2019-05-10T21:13:19.459Z,11.80
2019-05-10T21:15:45.912Z,11.80
2019-05-10T21:18:12.514Z,11.90
2019-05-10T21:20:38.965Z,11.90
2019-05-10T21:23:05.549Z,11.70
2019-05-10T21:25:32.201Z,12.00
2019-05-10T21:27:58.808Z,11.80
2019-05-10T21:30:25.280Z,11.90
2019-05-10T21:32:51.649Z,12.20
2019-05-10T21:35:18.244Z,12.00
2019-05-10T21:37:44.904Z,11.80
2019-05-10T21:40:11.593Z,11.80
2019-05-10T21:42:38.053Z,11.70
2019-05-10T21:45:04.731Z,12.00
2019-05-10T21:47:31.208Z,12.00
2019-05-10T21:49:57.604Z,12.40
2019-05-10T21:52:24.074Z,12.40
2019-05-10T21:54:50.651Z,11.80
2019-05-10T21:57:17.224Z,11.80
2019-05-10T21:59:43.940Z,11.80
2019-05-10T22:02:10.401Z,12.30
2019-05-10T22:04:36.977Z,12.40
2019-05-10T22:07:03.817Z,12.40
2019-05-10T22:09:30.303Z,12.40
2019-05-10T22:11:59.589Z,11.80
2019-05-10T22:14:25.248Z,12.10
2019-05-10T22:16:51.997Z,12.00
2019-05-10T22:19:18.456Z,11.80
2019-05-10T22:21:44.938Z,11.90
2019-05-10T22:24:11.526Z,11.80
2019-05-10T22:26:38.027Z,12.00
2019-05-10T22:29:04.492Z,11.70
2019-05-10T22:31:30.985Z,12.00
2019-05-10T22:33:57.440Z,12.00
2019-05-10T22:36:23.927Z,11.90
2019-05-10T22:39:05.603Z,11.80
2019-05-10T22:41:18.663Z,12.00
2019-05-10T22:43:45.141Z,11.80
2019-05-10T22:46:11.603Z,11.80
2019-05-10T22:48:38.080Z,11.80
2019-05-10T22:51:04.571Z,12.20
2019-05-10T22:53:31.049Z,12.30
2019-05-10T22:55:57.523Z,12.40
2019-05-10T22:58:23.916Z,12.40
2019-05-10T23:00:50.386Z,12.30
2019-05-10T23:03:18.232Z,12.40
2019-05-10T23:05:44.957Z,12.30
2019-05-10T23:08:11.456Z,12.20
2019-05-10T23:10:38.184Z,11.80
2019-05-10T23:13:04.984Z,12.10
2019-05-10T23:15:31.529Z,11.70
2019-05-10T23:17:57.976Z,12.00
2019-05-10T23:20:24.479Z,12.00
2019-05-10T23:22:51.021Z,11.70
2019-05-10T23:25:17.755Z,11.80
2019-05-10T23:27:44.493Z,12.00
2019-05-10T23:30:11.207Z,11.70
2019-05-10T23:32:37.590Z,11.70
2019-05-10T23:35:05.379Z,11.40
2019-05-10T23:37:32.003Z,11.40
2019-05-10T23:39:58.518Z,11.70
2019-05-10T23:42:24.969Z,11.70
2019-05-10T23:44:51.465Z,11.40
2019-05-10T23:47:18.454Z,11.40
2019-05-10T23:49:44.953Z,11.40
2019-05-10T23:52:11.402Z,11.40
2019-05-10T23:54:37.980Z,11.50
2019-05-10T23:57:05.000Z,11.60
2019-05-10T23:59:31.456Z,11.10
